Latest Weather Observations for Bridgetown

IDW60801

Issued at 12:35 pm WST Thursday 24 April 2014 (issued every 30 minutes, with the page automatically refreshed every 10 minutes)

About weather observations | Map of weather stations | Latest weather observations for WA | Other Formats
Station Details ID: 009617 Name: BRIDGETOWN Lat: -33.95 Lon: 116.13 Height: 178.66 m
Data from the previous 72 hours. | See also: Recent months at Bridgetown
Date/Time
WST
Temp
°C
App
Temp
°C
Dew
Point
Rel
Hum
%
Delta-T
°C
Wind Press
QNH
hPa
Press
MSL
hPa
Rain
since 9 am
mm
Dir
 
Spd
km/h
Gust
km/h
Spd
kts
Gust
kts
24/12:30pm 20.2 19.7 10.6 54 5.3 ESE 4 9 2 5 1010.2 - 0.0
24/12:00pm 19.3 18.7 10.3 56 4.9 SSW 4 7 2 4 1010.9 1010.6 0.0
24/11:30am 18.6 17.4 10.4 59 4.4 ESE 7 11 4 6 1011.6 - 0.0
24/11:00am 17.7 16.8 10.6 63 3.8 ESE 6 11 3 6 1012.0 1011.7 0.0
24/10:30am 16.8 15.8 10.4 66 3.4 ESE 6 9 3 5 1012.5 - 0.0
24/10:00am 16.2 15.2 10.3 68 3.1 E 6 11 3 6 1013.1 1012.8 0.0
24/09:30am 15.8 15.0 11.2 74 2.5 SE 6 15 3 8 1013.6 - 0.0
24/09:00am 13.8 14.6 12.7 93 0.6 CALM 0 0 0 0 1013.9 1013.6 0.0
24/08:30am 10.8 11.0 10.6 99 0.1 CALM 0 0 0 0 1013.8 - 0.0
24/08:00am 8.5 8.2 8.5 100 0.0 CALM 0 0 0 0 1014.1 1013.8 0.0
24/07:30am 6.7 5.9 6.7 100 0.0 CALM 0 0 0 0 1014.2 - 0.0
24/07:00am 5.8 4.8 5.7 99 0.0 CALM 0 0 0 0 1014.1 1013.8 0.0
24/06:30am 5.9 4.9 5.8 99 0.0 CALM 0 0 0 0 1014.4 - 0.0
24/06:00am 6.1 5.2 6.0 99 0.0 CALM 0 0 0 0 1014.6 1014.3 0.0
24/05:30am 6.2 5.3 6.1 99 0.0 CALM 0 0 0 0 1014.8 - 0.0
24/05:00am 7.3 6.7 7.2 99 0.0 CALM 0 0 0 0 1014.6 1014.3 0.0
24/04:30am 7.0 6.3 6.9 99 0.0 CALM 0 0 0 0 1014.9 - 0.0
24/04:00am 7.6 7.0 7.5 99 0.0 CALM 0 0 0 0 1014.8 1014.4 0.0
24/03:30am 8.0 7.5 7.9 99 0.0 CALM 0 0 0 0 1015.1 - 0.0
24/03:00am 8.0 7.5 7.9 99 0.0 CALM 0 0 0 0 1015.2 1014.8 0.0
24/02:30am 8.1 7.6 8.0 99 0.0 CALM 0 0 0 0 1015.4 - 0.0
24/02:00am 8.0 7.1 7.9 99 0.0 S 2 6 1 3 1015.5 1015.2 0.0
24/01:30am 7.9 7.0 7.8 99 0.0 SSW 2 4 1 2 1015.9 - 0.0
24/01:00am 8.1 7.6 8.0 99 0.0 CALM 0 0 0 0 1016.2 1015.9 0.0
24/12:30am 7.4 6.8 7.3 99 0.0 CALM 0 0 0 0 1016.3 - 0.0
24/12:00am 7.3 6.7 7.2 99 0.0 SSE 0 0 0 0 1016.5 1016.2 0.0
 
Date/Time
WST
Temp
°C
App
Temp
°C
Dew
Point
Rel
Hum
%
Delta-T
°C
Wind Press
QNH
hPa
Press
MSL
hPa
Rain
since 9 am
mm
Dir
 
Spd
km/h
Gust
km/h
Spd
kts
Gust
kts
23/11:30pm 7.2 6.5 7.1 99 0.0 CALM 0 0 0 0 1016.6 - 0.0
23/11:00pm 7.4 6.8 7.3 99 0.0 CALM 0 0 0 0 1016.9 1016.6 0.0
23/10:30pm 7.5 6.9 7.2 98 0.1 W 0 0 0 0 1017.0 - 0.0
23/10:00pm 7.9 7.3 7.6 98 0.1 CALM 0 0 0 0 1017.2 1016.9 0.0
23/09:30pm 8.6 8.2 8.3 98 0.1 CALM 0 0 0 0 1017.1 - 0.0
23/09:00pm 9.1 8.8 8.8 98 0.1 CALM 0 0 0 0 1017.1 1016.8 0.0
23/08:30pm 9.9 9.7 9.0 94 0.4 CALM 0 0 0 0 1017.0 - 0.0
23/08:00pm 10.4 10.2 9.0 91 0.7 CALM 0 0 0 0 1017.1 1016.8 0.0
23/07:30pm 11.5 11.1 8.2 80 1.6 CALM 0 0 0 0 1017.2 - 0.0
23/07:00pm 12.8 12.4 8.3 74 2.2 CALM 0 0 0 0 1017.2 1016.9 0.0
23/06:30pm 14.9 14.7 9.1 68 3.0 CALM 0 0 0 0 1017.0 - 0.0
23/06:00pm 16.9 16.6 8.8 59 4.2 CALM 0 0 0 0 1016.5 1016.2 0.0
23/05:30pm 18.2 17.2 8.7 54 5.0 S 4 6 2 3 1016.3 - 0.0
23/05:00pm 19.0 17.5 8.6 51 5.4 S 6 9 3 5 1016.4 1016.1 0.0
23/04:30pm 20.1 18.6 9.1 49 5.9 SE 7 13 4 7 1016.3 - 0.0
23/04:00pm 20.2 18.7 9.2 49 5.9 SSE 7 13 4 7 1016.2 1015.9 0.0
23/03:30pm 21.0 19.3 9.9 49 6.0 S 9 15 5 8 1016.1 - 0.0
23/03:00pm 20.8 18.3 9.7 49 6.0 S 13 19 7 10 1016.2 1015.9 0.0
23/02:30pm 20.3 17.7 9.5 50 5.8 SSE 13 20 7 11 1016.3 - 0.0
23/02:00pm 21.2 19.5 8.5 44 6.7 SE 7 15 4 8 1016.5 1016.2 0.0
23/01:30pm 21.5 20.1 9.4 46 6.5 ESE 7 17 4 9 1016.7 - 0.0
23/01:00pm 19.7 18.4 9.3 51 5.5 S 6 9 3 5 1017.1 1016.8 0.0
23/12:30pm 19.5 18.3 9.7 53 5.3 NW 6 11 3 6 1017.6 - 0.0
23/12:00pm 19.3 18.0 10.0 55 5.0 SSW 7 13 4 7 1018.0 1017.7 0.0
23/11:30am 19.1 17.9 9.6 54 5.1 SSE 6 11 3 6 1018.2 - 0.0
23/11:00am 18.4 18.4 11.2 63 3.9 S 2 7 1 4 1018.5 1018.2 0.0
23/10:30am 17.8 18.5 12.3 70 3.1 CALM 0 7 0 4 1018.7 - 0.0
23/10:00am 15.1 15.2 10.1 72 2.6 CALM 0 4 0 2 1019.1 1018.8 0.0
23/09:30am 11.5 11.4 9.4 87 1.1 CALM 0 0 0 0 1019.4 - 0.0
23/09:00am 8.9 8.6 8.6 98 0.1 CALM 0 4 0 2 1019.5 1019.2 0.0
23/08:30am 7.3 6.7 7.2 99 0.0 CALM 0 0 0 0 1019.5 - 0.0
23/08:00am 5.8 4.8 5.7 99 0.0 CALM 0 0 0 0 1019.1 1018.8 0.0
23/07:30am 4.7 3.5 4.6 99 0.0 CALM 0 0 0 0 1018.9 - 0.0
23/07:00am 4.0 2.7 3.9 99 0.0 CALM 0 0 0 0 1018.6 1018.3 0.0
23/06:30am 4.1 2.8 4.0 99 0.0 CALM 0 0 0 0 1018.5 - 0.0
23/06:00am 3.9 2.5 3.8 99 0.0 CALM 0 0 0 0 1018.2 1017.9 0.0
23/05:30am 3.4 2.0 3.3 99 0.0 CALM 0 2 0 1 1018.4 - 0.0
23/05:00am 3.1 1.6 3.0 99 0.0 CALM 0 0 0 0 1018.4 1018.1 0.0
23/04:30am 3.3 1.8 3.2 99 0.0 CALM 0 0 0 0 1018.4 - 0.0
23/04:00am 3.2 1.7 3.1 99 0.0 CALM 0 0 0 0 1018.3 1018.0 0.0
23/03:30am 3.3 1.8 3.2 99 0.0 CALM 0 0 0 0 1018.3 - 0.0
23/03:00am 3.6 2.2 3.5 99 0.0 CALM 0 0 0 0 1018.3 1018.0 0.0
23/02:30am 3.7 2.3 3.6 99 0.0 CALM 0 0 0 0 1018.8 - 0.0
23/02:00am 4.1 2.8 4.0 99 0.0 CALM 0 0 0 0 1018.8 1018.5 0.0
23/01:30am 4.6 3.4 4.5 99 0.0 CALM 0 0 0 0 1018.8 - 0.0
23/01:00am 5.1 4.0 5.0 99 0.0 CALM 0 0 0 0 1018.9 1018.6 0.0
23/12:30am 5.1 4.0 5.0 99 0.0 CALM 0 0 0 0 1018.6 - 0.0
23/12:00am 5.3 4.2 5.2 99 0.0 CALM 0 0 0 0 1018.9 1018.6 0.0
 
Date/Time
WST
Temp
°C
App
Temp
°C
Dew
Point
Rel
Hum
%
Delta-T
°C
Wind Press
QNH
hPa
Press
MSL
hPa
Rain
since 9 am
mm
Dir
 
Spd
km/h
Gust
km/h
Spd
kts
Gust
kts
22/11:30pm 6.3 5.4 6.2 99 0.0 CALM 0 0 0 0 1019.1 - 0.0
22/11:00pm 6.2 4.9 6.1 99 0.0 NNW 2 4 1 2 1019.5 1019.2 0.0
22/10:30pm 6.8 6.0 6.5 98 0.1 CALM 0 0 0 0 1019.6 - 0.0
22/10:00pm 7.1 6.4 6.8 98 0.1 CALM 0 0 0 0 1019.5 1019.2 0.0
22/09:30pm 7.6 7.0 7.3 98 0.1 CALM 0 0 0 0 1019.7 - 0.0
22/09:00pm 8.4 7.8 7.5 94 0.4 CALM 0 0 0 0 1019.9 1019.6 0.0
22/08:30pm 8.9 8.3 7.2 89 0.8 CALM 0 0 0 0 1019.8 - 0.0
22/08:00pm 9.9 9.2 7.0 82 1.4 CALM 0 0 0 0 1019.4 1019.1 0.0
22/07:30pm 11.0 10.3 7.1 77 1.9 CALM 0 0 0 0 1019.3 - 0.0
22/07:00pm 12.7 12.0 7.0 68 2.8 CALM 0 0 0 0 1019.3 1019.0 0.0
22/06:30pm 14.8 13.8 7.4 61 3.7 SSW 2 4 1 2 1018.5 - 0.0
22/06:00pm 16.5 15.1 7.4 55 4.6 S 4 9 2 5 1018.4 1018.1 0.0
22/05:30pm 17.4 15.6 7.2 51 5.1 SW 6 11 3 6 1018.2 - 0.0
22/05:00pm 18.8 16.9 6.9 46 6.0 SW 6 11 3 6 1017.9 1017.6 0.0
22/04:30pm 19.9 17.8 6.6 42 6.7 SW 7 13 4 7 1018.0 - 0.0
22/04:00pm 20.8 19.0 5.6 37 7.6 WSW 4 9 2 5 1018.0 1017.7 0.0
22/03:30pm 20.5 18.3 5.3 37 7.5 WSW 6 13 3 7 1018.2 - 0.0
22/03:00pm 21.1 19.0 5.9 37 7.7 WSW 6 11 3 6 1018.5 1018.2 0.0
22/02:30pm 20.3 18.1 6.3 40 7.1 S 7 17 4 9 1018.6 - 0.0
22/02:00pm 20.4 18.2 6.0 39 7.2 W 7 17 4 9 1018.7 1018.4 0.0
22/01:30pm 19.6 17.1 6.7 43 6.5 W 9 17 5 9 1019.0 - 0.0
22/01:00pm 19.6 17.1 6.7 43 6.5 SSW 9 17 5 9 1019.5 1019.2 0.0
22/12:30pm 20.3 18.3 7.0 42 6.8 NW 7 15 4 8 1019.9 - 0.0
22/12:00pm 19.3 17.4 7.4 46 6.1 W 7 13 4 7 1020.4 1020.2 0.0
22/11:30am 18.6 16.5 6.8 46 6.0 NNW 7 15 4 8 1021.2 - 0.0
22/11:00am 17.9 15.8 6.7 48 5.6 NNE 7 13 4 7 1021.5 1021.2 0.0
22/10:30am 16.8 15.8 8.8 59 4.2 SE 4 7 2 4 1021.8 - 0.0
22/10:00am 12.6 12.3 8.7 77 2.0 CALM 0 2 0 1 1022.2 1021.9 0.0
22/09:30am 11.2 10.8 8.2 82 1.5 CALM 0 0 0 0 1022.4 - 0.0
22/09:00am 8.1 7.5 7.3 95 0.4 CALM 0 0 0 0 1022.4 1022.1 0.0
22/08:30am 6.9 6.2 6.8 99 0.0 CALM 0 0 0 0 1022.5 - 0.0
22/08:00am 6.1 5.2 6.1 100 0.0 CALM 0 0 0 0 1022.5 1022.2 0.0
22/07:30am 4.4 3.2 4.4 100 0.0 CALM 0 0 0 0 1022.3 - 0.0
22/07:00am 2.5 0.9 2.4 99 0.0 CALM 0 0 0 0 1022.2 1021.9 0.0
22/06:30am 2.1 0.4 2.0 99 0.0 CALM 0 0 0 0 1021.9 - 0.0
22/06:00am 2.2 0.5 2.1 99 0.0 CALM 0 0 0 0 1021.9 1021.6 0.0
22/05:30am 2.4 0.8 2.3 99 0.0 CALM 0 0 0 0 1022.0 - 0.0
22/05:00am 2.5 0.9 2.4 99 0.0 CALM 0 0 0 0 1021.7 1021.4 0.0
22/04:30am 2.5 0.9 2.4 99 0.0 CALM 0 0 0 0 1021.8 - 0.0
22/04:00am 2.8 1.2 2.7 99 0.0 CALM 0 0 0 0 1021.8 1021.5 0.0
22/03:30am 3.0 1.5 2.9 99 0.0 CALM 0 0 0 0 1021.8 - 0.0
22/03:00am 3.6 2.2 3.5 99 0.0 CALM 0 0 0 0 1021.6 1021.3 0.0
22/02:30am 3.7 2.3 3.6 99 0.0 CALM 0 0 0 0 1021.4 - 0.0
22/02:00am 4.0 2.7 3.9 99 0.0 CALM 0 0 0 0 1021.4 1021.1 0.0
22/01:30am 4.2 2.9 4.1 99 0.0 CALM 0 0 0 0 1021.5 - 0.0
22/01:00am 4.8 3.6 4.7 99 0.0 CALM 0 0 0 0 1021.7 1021.4 0.0
22/12:30am 5.0 3.9 4.9 99 0.0 CALM 0 0 0 0 1021.5 - 0.0
22/12:00am 5.5 4.5 5.4 99 0.0 CALM 0 0 0 0 1021.6 1021.3 0.0
 
Date/Time
WST
Temp
°C
App
Temp
°C
Dew
Point
Rel
Hum
%
Delta-T
°C
Wind Press
QNH
hPa
Press
MSL
hPa
Rain
since 9 am
mm
Dir
 
Spd
km/h
Gust
km/h
Spd
kts
Gust
kts
21/11:30pm 5.7 4.7 5.6 99 0.0 CALM 0 0 0 0 1021.7 - 0.0
21/11:00pm 6.3 5.4 6.2 99 0.0 CALM 0 0 0 0 1021.9 1021.6 0.0
21/10:30pm 6.8 6.0 6.5 98 0.1 CALM 0 4 0 2 1022.2 - 0.0
21/10:00pm 7.0 6.2 6.7 98 0.1 CALM 0 0 0 0 1022.3 1022.0 0.0
21/09:30pm 7.5 6.9 7.2 98 0.1 CALM 0 0 0 0 1022.2 - 0.0
21/09:00pm 8.3 7.7 7.4 94 0.4 CALM 0 0 0 0 1022.2 1021.9 0.0
21/08:30pm 9.2 8.6 7.3 88 0.9 CALM 0 0 0 0 1022.0 - 0.0
21/08:00pm 10.7 10.1 7.6 81 1.5 CALM 0 0 0 0 1021.8 1021.5 0.0
21/07:30pm 12.3 11.7 7.6 73 2.3 CALM 0 4 0 2 1021.6 - 0.0
21/07:00pm 14.1 12.5 7.9 66 3.1 SSW 6 9 3 5 1021.3 1021.0 0.0
21/06:30pm 14.5 12.9 7.8 64 3.4 SSW 6 9 3 5 1020.8 - 0.0
21/06:00pm 15.6 13.8 8.1 61 3.8 SSW 7 11 4 6 1020.4 1020.2 0.0
21/05:30pm 16.5 14.5 8.5 59 4.1 S 9 13 5 7 1020.2 - 0.0
21/05:00pm 17.7 16.1 8.6 55 4.7 S 7 13 4 7 1019.9 1019.6 0.0
21/04:30pm 17.8 16.1 8.4 54 4.9 S 7 15 4 8 1019.7 - 0.0
21/04:00pm 18.1 15.6 8.1 52 5.1 SSW 11 17 6 9 1019.7 1019.4 0.0
21/03:30pm 18.4 15.7 7.2 48 5.7 S 11 19 6 10 1019.6 - 0.0
21/03:00pm 19.5 17.8 5.9 41 6.8 WSW 4 7 2 4 1019.4 1019.1 0.0
21/02:30pm 19.0 16.6 6.8 45 6.2 SSW 9 15 5 8 1019.3 - 0.0
21/02:00pm 18.4 15.1 6.6 46 5.9 S 13 19 7 10 1019.2 1018.9 0.0
21/01:30pm 18.6 16.3 5.8 43 6.3 S 7 15 4 8 1019.1 - 0.0
21/01:00pm 18.4 15.6 5.3 42 6.4 SE 9 19 5 10 1019.1 1018.8 0.0

Other Formats:

Comma delimited format used in spreadsheet applications
http://www.bom.gov.au/fwo/IDW60801/IDW60801.95632.axf

JavaScript Object Notation format (JSON) in row-major order
http://www.bom.gov.au/fwo/IDW60801/IDW60801.95632.json